Time;durP1;ratioP1;P1;durP2;ratioP2;P2;SDS_P1;SDS_P2;PMS_P1;PMS_P2;Temp;Humidity;BMP_temperature;BMP_pressure;BME280_temperature;BME280_humidity;BME280_pressure;Samples;Min_cycle;Max_cycle;Signal;HPM_P1;HPM_P2
2023/05/04 00:02:07;;;;;;;12.88;3.55;;;;;;;7.50;66.26;100804.22;5001618;28;20054;-49
2023/05/04 00:04:34;;;;;;;5.72;2.55;;;;;;;7.49;66.87;100802.50;5004900;28;20217;-44
2023/05/04 00:07:00;;;;;;;6.10;2.78;;;;;;;7.53;66.98;100799.16;4996038;28;20104;-43
2023/05/04 00:09:27;;;;;;;5.72;2.38;;;;;;;7.50;66.95;100796.50;4994967;28;20104;-47
2023/05/04 00:11:54;;;;;;;7.55;3.33;;;;;;;7.49;67.05;100787.03;4996841;28;20748;-44
2023/05/04 00:14:20;;;;;;;5.82;2.65;;;;;;;7.44;67.10;100787.78;4997269;28;20579;-42
2023/05/04 00:16:47;;;;;;;9.20;3.28;;;;;;;7.43;66.28;100786.03;5000595;28;20142;-41
2023/05/04 00:19:14;;;;;;;8.60;3.28;;;;;;;7.39;67.20;100797.13;4998285;28;20046;-45
2023/05/04 00:21:40;;;;;;;7.95;3.63;;;;;;;7.39;66.38;100791.97;4998510;28;20533;-42
2023/05/04 00:24:07;;;;;;;17.38;3.58;;;;;;;7.38;66.12;100789.34;4996738;28;20156;-47
2023/05/04 00:26:33;;;;;;;10.05;4.45;;;;;;;7.33;65.82;100789.28;4999307;28;20648;-44
2023/05/04 00:29:00;;;;;;;7.15;3.08;;;;;;;7.28;66.27;100781.44;5000596;28;20073;-44
2023/05/04 00:31:27;;;;;;;12.07;4.20;;;;;;;7.26;66.51;100780.50;5000688;28;20073;-45
2023/05/04 00:33:54;;;;;;;7.20;3.38;;;;;;;7.23;66.81;100779.56;5001525;28;20052;-50
2023/05/04 00:36:21;;;;;;;13.00;3.85;;;;;;;7.18;67.18;100775.19;5003443;28;20077;-43
2023/05/04 00:38:50;;;;;;;6.90;3.63;;;;;;;7.15;67.23;100769.97;5005260;28;20096;-40
2023/05/04 00:41:18;;;;;;;10.18;3.95;;;;;;;7.11;66.41;100769.84;5001383;28;20077;-46
2023/05/04 00:43:46;;;;;;;9.75;3.50;;;;;;;7.09;65.55;100767.22;5007524;28;20057;-42
2023/05/04 00:46:13;;;;;;;7.88;3.65;;;;;;;7.04;66.77;100761.13;5008381;28;20046;-44
2023/05/04 00:48:41;;;;;;;7.95;3.55;;;;;;;7.00;66.11;100756.72;5005450;28;20498;-44
2023/05/04 00:51:10;;;;;;;10.85;3.45;;;;;;;6.96;65.88;100752.34;5005780;28;20050;-43
2023/05/04 00:53:38;;;;;;;11.20;4.57;;;;;;;6.92;66.21;100754.84;5008356;28;20088;-44
2023/05/04 00:56:06;;;;;;;8.18;3.20;;;;;;;6.88;67.54;100747.88;5007572;28;20130;-44
2023/05/04 00:58:33;;;;;;;8.18;3.53;;;;;;;6.87;67.47;100746.16;5009198;28;20100;-42
2023/05/04 01:01:01;;;;;;;7.53;3.20;;;;;;;6.86;67.51;100743.53;5005522;28;20038;-42
2023/05/04 01:03:28;;;;;;;8.93;3.88;;;;;;;6.85;66.98;100732.34;5004659;28;20046;-42
2023/05/04 01:06:35;;;;;;;11.57;4.70;;;;;;;6.75;68.14;100725.25;5006386;28;20045;-49
2023/05/04 01:11:52;;;;;;;9.57;4.47;;;;;;;6.73;67.61;100722.66;5026264;28;20414;-45
2023/05/04 01:14:20;;;;;;;15.52;5.72;;;;;;;6.73;67.76;100726.91;4994942;28;20081;-44
2023/05/04 01:16:49;;;;;;;10.63;4.90;;;;;;;6.69;67.37;100721.69;4999405;28;20077;-47
2023/05/04 01:19:15;;;;;;;9.50;3.83;;;;;;;6.66;67.88;100716.44;4994588;28;20457;-44
2023/05/04 01:21:42;;;;;;;9.60;4.60;;;;;;;6.64;66.94;100705.25;4996140;28;20050;-40
2023/05/04 01:24:09;;;;;;;12.25;5.22;;;;;;;6.63;67.37;100695.81;4996011;28;20495;-43
2023/05/04 01:26:40;;;;;;;8.73;4.63;;;;;;;6.64;67.82;100697.53;5001025;28;20137;-43
2023/05/04 01:31:45;;;;;;;8.63;3.42;;;;;;;6.60;69.43;100706.03;5036154;28;20401;-43
2023/05/04 01:34:12;;;;;;;10.45;3.63;;;;;;;6.63;67.73;100705.22;4997300;28;20058;-47
2023/05/04 01:36:40;;;;;;;8.18;3.28;;;;;;;6.62;67.97;100699.19;4992599;28;20589;-43
2023/05/04 01:39:07;;;;;;;9.25;5.18;;;;;;;6.60;68.84;100700.00;5000428;28;20159;-47
2023/05/04 01:41:35;;;;;;;6.00;3.13;;;;;;;6.58;69.09;100692.22;5003540;28;20046;-42
2023/05/04 01:44:03;;;;;;;10.23;3.25;;;;;;;6.58;67.99;100692.22;4999763;28;20050;-46
2023/05/04 01:46:30;;;;;;;10.38;3.28;;;;;;;6.58;68.53;100684.50;4998371;28;20046;-40
2023/05/04 01:48:57;;;;;;;10.32;5.18;;;;;;;6.53;68.89;100683.53;5002447;28;20046;-45
2023/05/04 01:51:24;;;;;;;7.80;3.15;;;;;;;6.52;68.50;100681.81;5001770;28;20557;-43
2023/05/04 01:53:50;;;;;;;6.53;3.25;;;;;;;6.49;68.56;100674.00;5002185;28;20050;-43
2023/05/04 01:56:17;;;;;;;8.43;5.10;;;;;;;6.50;68.95;100678.31;4998318;28;20137;-41
2023/05/04 01:58:44;;;;;;;9.18;4.53;;;;;;;6.46;68.91;100673.94;4998449;28;20104;-40
2023/05/04 02:01:10;;;;;;;14.27;3.63;;;;;;;6.46;69.62;100676.50;5000542;28;20491;-42
2023/05/04 02:03:37;;;;;;;12.23;3.88;;;;;;;6.42;69.66;100671.28;5003304;28;20053;-46
2023/05/04 02:06:04;;;;;;;12.18;5.00;;;;;;;6.42;70.05;100666.13;5003625;28;20046;-43
2023/05/04 02:08:30;;;;;;;11.30;5.75;;;;;;;6.41;68.88;100660.94;4999244;28;20070;-40
2023/05/04 02:10:57;;;;;;;12.35;5.30;;;;;;;6.38;70.02;100664.31;4993057;28;20070;-46
2023/05/04 02:13:23;;;;;;;9.27;3.20;;;;;;;6.35;68.71;100665.97;4993111;28;20145;-45
2023/05/04 02:15:50;;;;;;;7.90;3.03;;;;;;;6.34;70.04;100666.75;4991769;28;20096;-42
2023/05/04 02:18:16;;;;;;;12.10;4.95;;;;;;;6.32;69.40;100669.34;4991576;28;20816;-48
2023/05/04 02:20:43;;;;;;;10.25;5.97;;;;;;;6.28;70.26;100657.19;4992908;28;20058;-47
2023/05/04 02:23:10;;;;;;;6.18;4.32;;;;;;;6.29;70.22;100656.38;4993334;28;20445;-42
2023/05/04 02:25:40;;;;;;;10.00;4.60;;;;;;;6.25;70.14;100654.56;4992787;28;20050;-46
2023/05/04 02:28:07;;;;;;;9.77;4.60;;;;;;;6.26;70.37;100653.72;4990003;28;20070;-43
2023/05/04 02:30:33;;;;;;;8.68;3.60;;;;;;;6.25;70.62;100652.00;4991402;28;21818;-44
2023/05/04 02:33:00;;;;;;;7.72;3.38;;;;;;;6.25;70.00;100647.69;4997527;28;20093;-43
2023/05/04 02:35:27;;;;;;;8.43;2.67;;;;;;;6.25;69.90;100652.00;4994019;28;20073;-46
2023/05/04 02:37:53;;;;;;;9.43;4.95;;;;;;;6.19;70.72;100644.13;4988130;28;20171;-43
2023/05/04 02:40:20;;;;;;;11.32;5.13;;;;;;;6.19;70.62;100645.00;4993652;28;20133;-42
2023/05/04 02:42:46;;;;;;;9.57;5.20;;;;;;;6.18;70.23;100638.09;4986808;28;20055;-42
2023/05/04 02:45:13;;;;;;;12.95;3.67;;;;;;;6.16;70.40;100648.38;4981278;28;20046;-46
2023/05/04 02:47:40;;;;;;;9.55;3.33;;;;;;;6.19;70.56;100641.53;4989517;28;20046;-44
2023/05/04 02:50:07;;;;;;;5.30;2.55;;;;;;;6.18;72.00;100640.66;4989623;28;20042;-40
2023/05/04 02:52:34;;;;;;;15.80;5.03;;;;;;;6.21;70.85;100635.59;4989917;28;20057;-44
2023/05/04 02:55:02;;;;;;;6.63;4.28;;;;;;;6.21;71.67;100630.44;4983370;28;20488;-43
2023/05/04 02:57:28;;;;;;;10.68;5.05;;;;;;;6.22;70.79;100626.19;4987254;28;20074;-43
2023/05/04 02:59:55;;;;;;;9.10;3.42;;;;;;;6.23;71.15;100615.94;4988530;28;20052;-48
2023/05/04 03:02:22;;;;;;;14.00;3.30;;;;;;;6.25;70.97;100621.13;4984639;28;20073;-46
2023/05/04 03:04:48;;;;;;;10.07;3.42;;;;;;;6.26;71.24;100618.59;4986577;28;20533;-44
2023/05/04 03:07:15;;;;;;;9.82;3.63;;;;;;;6.26;71.79;100613.44;4987601;28;20077;-47
2023/05/04 03:09:42;;;;;;;9.25;4.65;;;;;;;6.23;72.13;100612.50;4986937;28;20058;-45
2023/05/04 03:12:12;;;;;;;7.53;3.10;;;;;;;6.25;71.52;100609.13;4987148;28;20051;-42
2023/05/04 03:14:38;;;;;;;10.10;4.85;;;;;;;6.24;72.54;100604.81;4982260;28;20070;-44
2023/05/04 03:17:05;;;;;;;13.02;3.40;;;;;;;6.24;71.95;100598.78;4987218;28;20482;-40
2023/05/04 03:19:32;;;;;;;9.80;3.90;;;;;;;6.28;72.34;100595.44;4985517;28;20053;-42
2023/05/04 03:21:58;;;;;;;11.07;5.45;;;;;;;6.31;72.69;100590.38;4984765;28;20080;-41
2023/05/04 03:24:25;;;;;;;14.23;3.88;;;;;;;6.33;73.11;100587.84;4986334;28;20057;-44
2023/05/04 03:26:52;;;;;;;12.30;5.30;;;;;;;6.31;73.03;100592.94;4985208;28;20100;-43
2023/05/04 03:29:18;;;;;;;9.40;4.03;;;;;;;6.34;71.94;100587.88;4982357;28;20054;-42
2023/05/04 03:31:45;;;;;;;10.07;3.75;;;;;;;6.37;72.65;100590.53;4979391;28;20046;-38
2023/05/04 03:34:13;;;;;;;10.95;5.47;;;;;;;6.37;71.65;100585.38;4977815;28;20082;-45
2023/05/04 03:36:40;;;;;;;15.75;6.18;;;;;;;6.41;73.28;100591.47;4979381;28;20046;-46
2023/05/04 03:39:07;;;;;;;9.68;3.60;;;;;;;6.39;72.61;100590.56;4976901;28;20382;-45
2023/05/04 03:41:33;;;;;;;11.57;5.32;;;;;;;6.42;72.13;100588.09;4977753;28;20070;-44
2023/05/04 03:44:00;;;;;;;14.10;4.70;;;;;;;6.46;72.87;100581.28;4978619;28;20062;-44
2023/05/04 03:46:26;;;;;;;12.95;4.20;;;;;;;6.44;73.55;100576.09;4980674;28;20516;-44
2023/05/04 03:48:53;;;;;;;7.82;3.15;;;;;;;6.50;72.11;100583.09;4977624;28;21032;-41
2023/05/04 03:51:20;;;;;;;9.70;5.40;;;;;;;6.50;71.83;100580.53;4976590;28;20046;-40
2023/05/04 03:53:47;;;;;;;12.15;6.63;;;;;;;6.53;71.37;100581.47;4976663;28;20112;-43
2023/05/04 03:56:13;;;;;;;14.13;6.47;;;;;;;6.54;72.55;100574.59;4979256;28;20157;-45
2023/05/04 03:58:40;;;;;;;13.65;5.68;;;;;;;6.55;73.16;100573.75;4978116;28;20061;-42
2023/05/04 04:01:07;;;;;;;16.33;6.45;;;;;;;6.56;72.93;100566.06;4978298;28;20136;-44
2023/05/04 04:03:35;;;;;;;12.85;6.22;;;;;;;6.56;72.21;100558.34;4978542;28;20144;-41
2023/05/04 04:06:02;;;;;;;14.48;6.45;;;;;;;6.57;72.50;100556.66;4977431;28;20051;-47
2023/05/04 04:08:29;;;;;;;13.75;6.25;;;;;;;6.59;72.26;100555.00;4977752;28;20053;-44
2023/05/04 04:10:57;;;;;;;11.30;4.78;;;;;;;6.59;72.16;100544.72;4978018;28;20042;-44
2023/05/04 04:13:24;;;;;;;12.32;4.28;;;;;;;6.58;73.28;100549.81;4977529;28;20152;-44
2023/05/04 04:15:50;;;;;;;13.55;6.15;;;;;;;6.60;72.66;100553.28;4977115;28;20112;-42
2023/05/04 04:18:17;;;;;;;13.00;4.70;;;;;;;6.59;72.08;100549.84;4977301;28;20047;-44
2023/05/04 04:20:44;;;;;;;7.30;3.42;;;;;;;6.59;73.11;100544.72;4977495;28;20117;-43
2023/05/04 04:23:11;;;;;;;11.90;6.18;;;;;;;6.58;73.04;100537.81;4975283;28;20046;-44
2023/05/04 04:25:37;;;;;;;14.48;6.43;;;;;;;6.59;72.22;100537.00;4975393;28;20046;-41
2023/05/04 04:28:04;;;;;;;10.85;4.47;;;;;;;6.58;72.49;100532.66;4976545;28;20058;-46
2023/05/04 04:30:30;;;;;;;11.90;4.25;;;;;;;6.60;72.21;100532.69;4976362;28;20043;-44
2023/05/04 04:32:57;;;;;;;15.13;6.85;;;;;;;6.62;72.75;100531.88;4981444;28;20094;-44
2023/05/04 04:35:24;;;;;;;17.77;7.00;;;;;;;6.61;72.29;100527.56;4977062;28;20053;-42
2023/05/04 04:37:50;;;;;;;13.18;6.22;;;;;;;6.60;73.64;100518.13;4975623;28;20128;-43
2023/05/04 04:40:17;;;;;;;14.18;6.28;;;;;;;6.63;73.03;100519.88;4978412;28;20077;-48
2023/05/04 04:42:44;;;;;;;14.23;7.22;;;;;;;6.64;73.15;100519.94;4980265;28;20050;-46
2023/05/04 04:45:11;;;;;;;17.95;6.95;;;;;;;6.65;72.86;100513.94;4974644;28;20130;-43
2023/05/04 04:47:38;;;;;;;9.57;5.32;;;;;;;6.65;73.13;100521.66;4983116;28;20446;-43
2023/05/04 04:50:06;;;;;;;9.35;3.90;;;;;;;6.67;73.62;100522.56;4983934;28;20070;-41
2023/05/04 04:52:33;;;;;;;11.55;5.20;;;;;;;6.67;73.89;100516.53;4984298;28;20165;-40
2023/05/04 04:55:00;;;;;;;16.17;6.25;;;;;;;6.65;73.24;100521.66;4980438;28;20549;-44
2023/05/04 04:57:27;;;;;;;13.52;6.57;;;;;;;6.65;74.13;100508.78;4982833;28;20069;-45
2023/05/04 04:59:57;;;;;;;14.60;6.75;;;;;;;6.67;74.19;100508.81;4982159;28;20046;-46
2023/05/04 05:02:23;;;;;;;13.75;7.13;;;;;;;6.65;73.56;100508.78;4984673;28;20114;-45
2023/05/04 05:04:50;;;;;;;14.80;6.22;;;;;;;6.67;72.82;100507.13;4987034;28;20502;-44
2023/05/04 05:07:17;;;;;;;12.52;6.22;;;;;;;6.69;74.38;100510.59;4985737;28;20079;-44
2023/05/04 05:09:43;;;;;;;21.00;6.82;;;;;;;6.69;73.77;100502.84;4986875;28;20594;-45
2023/05/04 05:12:10;;;;;;;17.45;5.95;;;;;;;6.72;73.40;100504.63;4978863;28;20050;-42
2023/05/04 05:14:37;;;;;;;17.38;5.50;;;;;;;6.75;73.80;100493.53;4976407;28;20085;-45
2023/05/04 05:17:03;;;;;;;16.75;6.13;;;;;;;6.78;73.22;100498.72;4977298;28;20097;-43
2023/05/04 05:19:35;;;;;;;24.25;7.20;;;;;;;6.79;73.35;100492.75;4979137;28;20094;-44
2023/05/04 05:22:03;;;;;;;20.73;8.23;;;;;;;6.81;73.80;100489.38;4976642;28;20043;-44
2023/05/04 05:24:30;;;;;;;18.35;5.90;;;;;;;6.87;75.37;100488.63;4977146;28;20054;-40
2023/05/04 05:26:57;;;;;;;18.13;7.95;;;;;;;6.91;74.38;100487.84;4971018;28;20101;-45
2023/05/04 05:29:24;;;;;;;22.38;8.15;;;;;;;6.93;74.66;100483.59;4963536;28;20660;-45
2023/05/04 05:31:51;;;;;;;18.75;8.30;;;;;;;6.97;74.63;100483.66;4966182;28;20073;-40
2023/05/04 05:34:17;;;;;;;15.70;7.28;;;;;;;6.99;74.52;100482.00;4970154;28;20102;-42
2023/05/04 05:36:44;;;;;;;18.75;5.80;;;;;;;7.01;74.90;100480.28;4965667;28;20541;-42
2023/05/04 05:39:11;;;;;;;16.70;6.15;;;;;;;7.05;75.33;100476.94;4965352;28;20137;-43
2023/05/04 05:41:37;;;;;;;18.88;7.55;;;;;;;7.07;75.33;100470.97;4966987;28;20113;-40
2023/05/04 05:44:04;;;;;;;17.90;7.65;;;;;;;7.10;74.03;100479.59;4970353;28;20557;-48
2023/05/04 05:46:30;;;;;;;15.38;7.18;;;;;;;7.17;73.97;100472.00;4976966;28;20051;-44
2023/05/04 05:48:57;;;;;;;16.17;7.72;;;;;;;7.23;74.41;100476.38;4978063;28;20069;-44
2023/05/04 05:51:24;;;;;;;16.23;6.63;;;;;;;7.29;75.12;100473.06;4974244;28;20046;-46
2023/05/04 05:53:50;;;;;;;15.68;5.95;;;;;;;7.31;75.00;100479.13;4978040;28;20074;-41
2023/05/04 05:56:17;;;;;;;18.50;8.50;;;;;;;7.39;74.31;100477.53;4978286;28;20050;-46
2023/05/04 05:58:43;;;;;;;15.00;6.05;;;;;;;7.45;74.27;100467.34;4979455;28;20046;-46
2023/05/04 06:01:10;;;;;;;18.55;8.63;;;;;;;7.54;73.62;100476.06;4971668;28;20137;-49
2023/05/04 06:03:36;;;;;;;26.58;10.45;;;;;;;7.61;73.90;100477.03;4973080;28;20106;-40
2023/05/04 06:06:03;;;;;;;22.35;6.85;;;;;;;7.68;73.50;100472.03;4979154;28;20494;-40
2023/05/04 06:08:30;;;;;;;19.35;7.88;;;;;;;7.76;73.97;100471.25;4977187;28;20691;-44
2023/05/04 06:10:57;;;;;;;17.55;7.93;;;;;;;7.79;73.93;100471.31;4969914;28;20146;-44
2023/05/04 06:13:23;;;;;;;19.60;7.75;;;;;;;7.89;73.70;100468.03;4977145;28;20148;-43
2023/05/04 06:15:51;;;;;;;15.63;6.75;;;;;;;7.93;74.67;100456.91;4976236;28;20054;-42
2023/05/04 06:18:19;;;;;;;15.20;8.05;;;;;;;8.01;73.72;100456.16;4975528;28;20047;-43
2023/05/04 06:20:46;;;;;;;16.80;5.82;;;;;;;8.04;74.67;100451.06;4977150;28;20057;-45
2023/05/04 06:23:13;;;;;;;18.17;5.63;;;;;;;8.11;73.96;100439.97;4972532;28;20074;-45
2023/05/04 06:25:40;;;;;;;16.08;7.47;;;;;;;8.21;74.48;100436.66;4974646;28;20474;-43
2023/05/04 06:28:07;;;;;;;13.73;7.00;;;;;;;8.36;74.17;100432.53;4979176;28;20242;-40
2023/05/04 06:30:33;;;;;;;15.57;7.93;;;;;;;8.57;73.71;100431.97;4968861;28;20861;-46
2023/05/04 06:33:00;;;;;;;20.55;5.63;;;;;;;8.76;73.67;100429.59;4970364;28;20097;-46
2023/05/04 06:35:28;;;;;;;16.98;7.28;;;;;;;8.91;73.13;100434.03;4970467;28;20503;-40
2023/05/04 06:37:55;;;;;;;16.25;4.85;;;;;;;9.03;73.43;100435.03;4967000;28;20051;-47
2023/05/04 06:40:21;;;;;;;18.13;5.90;;;;;;;9.08;73.10;100425.59;4975528;28;20043;-44
2023/05/04 06:42:48;;;;;;;13.25;5.50;;;;;;;9.14;72.51;100417.91;4976678;28;20046;-48
2023/05/04 06:45:15;;;;;;;20.77;7.05;;;;;;;9.29;72.82;100411.16;4973950;28;20051;-43
2023/05/04 06:47:41;;;;;;;14.45;6.47;;;;;;;9.49;72.54;100404.41;4976200;28;20082;-42
2023/05/04 06:50:10;;;;;;;16.15;5.57;;;;;;;9.51;72.63;100391.50;4973504;28;20047;-44
2023/05/04 06:52:38;;;;;;;11.90;6.80;;;;;;;9.66;72.46;100390.72;4974779;28;20232;-42
2023/05/04 06:55:06;;;;;;;13.93;7.65;;;;;;;9.81;71.81;100399.44;4971443;28;20447;-44
2023/05/04 06:57:33;;;;;;;14.57;5.75;;;;;;;9.97;71.87;100401.25;4978668;28;20124;-46
2023/05/04 06:59:59;;;;;;;22.48;6.95;;;;;;;10.00;70.85;100396.09;4979888;28;20082;-43
2023/05/04 07:02:26;;;;;;;14.70;5.53;;;;;;;10.14;71.47;100392.72;4972244;28;20050;-45
2023/05/04 07:04:53;;;;;;;12.63;6.07;;;;;;;10.24;70.33;100388.47;4979515;28;20873;-44
2023/05/04 07:07:20;;;;;;;12.73;5.68;;;;;;;10.57;70.64;100376.50;4973653;28;20061;-43
2023/05/04 07:09:47;;;;;;;25.95;6.82;;;;;;;10.68;69.39;100373.94;4984454;28;20074;-48
2023/05/04 07:12:16;;;;;;;15.13;6.50;;;;;;;10.93;69.30;100363.59;4979548;28;20477;-41
2023/05/04 07:14:43;;;;;;;13.98;5.43;;;;;;;11.11;69.46;100367.94;4973071;28;21629;-43
2023/05/04 07:17:14;;;;;;;14.85;5.97;;;;;;;11.40;68.51;100369.66;4972655;28;20169;-42
2023/05/04 07:19:41;;;;;;;13.85;5.95;;;;;;;11.64;67.53;100359.25;4981649;28;20077;-44
2023/05/04 07:22:08;;;;;;;13.07;5.78;;;;;;;11.94;68.00;100344.44;4979222;28;20058;-47
2023/05/04 07:24:34;;;;;;;18.85;5.93;;;;;;;12.24;67.41;100331.38;4984962;28;20129;-42
2023/05/04 07:27:01;;;;;;;16.30;5.53;;;;;;;12.59;67.28;100320.78;4982567;28;20046;-42
2023/05/04 07:29:27;;;;;;;10.90;5.97;;;;;;;13.01;66.51;100334.34;4983563;28;20554;-48
2023/05/04 07:31:54;;;;;;;12.93;6.78;;;;;;;13.22;64.76;100335.91;4980490;28;20455;-44
2023/05/04 07:34:21;;;;;;;15.73;6.00;;;;;;;13.34;63.45;100332.31;4979379;28;20112;-43
2023/05/04 07:36:59;;;;;;;17.05;5.72;;;;;;;13.36;62.84;100326.22;4979694;28;20702;-47
2023/05/04 07:39:26;;;;;;;15.02;5.25;;;;;;;13.37;62.83;100322.75;4975682;28;20046;-42
2023/05/04 07:41:53;;;;;;;9.65;4.88;;;;;;;13.54;62.29;100326.09;4976862;28;20039;-43
2023/05/04 07:44:20;;;;;;;19.17;5.47;;;;;;;13.72;62.20;100325.03;4986427;28;20149;-50
2023/05/04 07:46:47;;;;;;;16.70;6.13;;;;;;;13.94;62.22;100320.41;4974998;28;20059;-46
2023/05/04 07:49:13;;;;;;;16.20;5.25;;;;;;;13.96;61.70;100316.06;4980491;28;20085;-48
2023/05/04 07:51:41;;;;;;;13.70;5.97;;;;;;;13.87;61.38;100311.81;4982145;28;20159;-44
2023/05/04 07:54:08;;;;;;;13.43;5.68;;;;;;;13.90;61.76;100302.25;4972919;28;20471;-43
2023/05/04 07:56:34;;;;;;;12.27;5.28;;;;;;;13.97;61.76;100301.28;4980776;28;20081;-47
2023/05/04 07:59:01;;;;;;;10.50;5.13;;;;;;;14.11;61.03;100298.50;4977252;28;20570;-44
2023/05/04 08:01:28;;;;;;;10.75;5.45;;;;;;;14.37;61.15;100300.75;4986782;28;20069;-47
2023/05/04 08:03:54;;;;;;;15.55;5.75;;;;;;;14.65;60.33;100308.16;4980243;28;20082;-43
2023/05/04 08:06:21;;;;;;;13.25;4.65;;;;;;;14.94;60.23;100306.00;4981754;28;20109;-42
2023/05/04 08:08:48;;;;;;;12.68;5.63;;;;;;;14.99;59.04;100304.16;4985842;28;20072;-45
2023/05/04 08:11:18;;;;;;;14.50;5.65;;;;;;;14.79;58.81;100307.09;4986314;28;20513;-44
2023/05/04 08:13:48;;;;;;;15.18;5.93;;;;;;;14.74;59.08;100294.13;4982025;28;20046;-45
2023/05/04 08:16:15;;;;;;;15.40;6.13;;;;;;;14.73;58.96;100299.34;4983668;28;20112;-42
2023/05/04 08:18:42;;;;;;;27.75;6.57;;;;;;;14.95;59.37;100288.59;4980508;28;20050;-43
2023/05/04 08:21:09;;;;;;;14.02;5.90;;;;;;;15.27;59.55;100292.38;4986351;28;20042;-47
2023/05/04 08:23:35;;;;;;;13.93;5.75;;;;;;;15.64;59.60;100289.06;4985385;28;20505;-46
2023/05/04 08:26:03;;;;;;;10.82;4.35;;;;;;;15.93;57.51;100289.34;4979835;28;20098;-42
2023/05/04 08:28:36;;;;;;;15.43;5.57;;;;;;;16.08;56.75;100284.72;4979348;28;20050;-46
2023/05/04 08:31:03;;;;;;;14.43;5.13;;;;;;;16.16;56.80;100288.91;4981015;28;20082;-47
2023/05/04 08:33:30;;;;;;;15.30;8.25;;;;;;;16.12;55.50;100283.75;4982745;28;20729;-41
2023/05/04 08:35:57;;;;;;;13.35;5.72;;;;;;;16.12;56.29;100275.94;4984530;28;20065;-43
2023/05/04 08:38:23;;;;;;;11.02;5.50;;;;;;;15.90;55.54;100274.59;4982748;28;20589;-45
2023/05/04 08:40:51;;;;;;;14.18;6.00;;;;;;;15.72;56.19;100275.00;4985259;28;20140;-45
2023/05/04 08:43:18;;;;;;;20.50;5.93;;;;;;;15.47;55.90;100285.94;4986550;28;20038;-47
2023/05/04 08:45:44;;;;;;;14.27;6.63;;;;;;;15.21;56.38;100277.72;4978255;28;20144;-40
2023/05/04 08:48:12;;;;;;;14.68;6.28;;;;;;;15.01;57.25;100288.50;4981242;28;20515;-44
2023/05/04 08:50:38;;;;;;;15.57;6.25;;;;;;;14.90;57.80;100278.25;4974054;28;20100;-47
2023/05/04 08:53:10;;;;;;;14.50;5.95;;;;;;;14.86;57.55;100274.81;4980229;28;20074;-44
2023/05/04 08:55:38;;;;;;;17.52;6.57;;;;;;;15.03;57.99;100263.25;4978706;28;20046;-51
2023/05/04 08:58:08;;;;;;;14.02;5.82;;;;;;;15.23;57.22;100269.84;4962602;28;20054;-44
2023/05/04 09:00:37;;;;;;;15.13;5.95;;;;;;;15.21;57.37;100261.19;4980766;28;20050;-44
2023/05/04 09:03:09;;;;;;;18.60;6.32;;;;;;;15.35;57.55;100267.00;4975602;28;20593;-47
2023/05/04 09:05:37;;;;;;;20.52;6.07;;;;;;;15.41;57.17;100268.63;4971561;28;20069;-43
2023/05/04 09:08:04;;;;;;;13.80;6.05;;;;;;;15.45;57.47;100269.44;4980783;28;20516;-44
2023/05/04 09:10:32;;;;;;;14.85;5.97;;;;;;;15.45;57.40;100258.97;4981918;28;20642;-49
2023/05/04 09:12:59;;;;;;;14.90;6.22;;;;;;;15.37;57.60;100260.00;4978284;28;20051;-47
2023/05/04 09:15:25;;;;;;;16.77;6.65;;;;;;;15.26;57.08;100259.34;4980480;28;20046;-45
2023/05/04 09:17:56;;;;;;;16.13;5.60;;;;;;;15.03;57.04;100247.59;4984387;28;20046;-43
2023/05/04 09:20:24;;;;;;;14.05;6.00;;;;;;;14.88;57.47;100239.16;4980406;28;20141;-46
2023/05/04 09:23:12;;;;;;;17.48;6.43;;;;;;;14.79;57.69;100236.69;4979018;28;20287;-41
2023/05/04 09:25:48;;;;;;;17.33;6.20;;;;;;;14.80;57.37;100240.16;4977427;28;20141;-42
2023/05/04 09:28:15;;;;;;;13.13;6.18;;;;;;;14.78;57.74;100237.59;4981536;28;20046;-47
2023/05/04 09:30:43;;;;;;;12.77;5.05;;;;;;;14.81;57.50;100242.75;4982283;28;20050;-43
2023/05/04 09:33:10;;;;;;;13.70;5.72;;;;;;;14.95;57.81;100259.91;4985836;28;20100;-43
2023/05/04 09:35:41;;;;;;;13.00;5.78;;;;;;;15.12;57.54;100252.63;4982231;28;20046;-42
2023/05/04 09:38:08;;;;;;;19.25;6.50;;;;;;;15.28;58.05;100252.34;4983108;28;20120;-42
2023/05/04 09:40:39;;;;;;;15.52;6.13;;;;;;;15.47;57.48;100258.06;4981866;28;20104;-43
2023/05/04 09:43:07;;;;;;;12.05;4.93;;;;;;;15.72;57.46;100247.13;4978124;28;20057;-46
2023/05/04 09:45:43;;;;;;;12.10;5.32;;;;;;;15.92;56.77;100233.66;4978951;28;20073;-44
2023/05/04 09:48:19;;;;;;;18.48;7.03;;;;;;;16.12;56.98;100229.75;4983406;28;20442;-47
2023/05/04 09:50:54;;;;;;;;;;;;;;;16.09;55.53;100224.59;4984056;28;20074;-45
2023/05/04 09:53:23;;;;;;;16.60;5.60;;;;;;;16.11;55.82;100217.56;4987647;28;19933;-43
2023/05/04 09:56:10;;;;;;;;;;;;;;;16.06;56.64;100217.69;4985418;28;20077;-44
2023/05/04 09:58:39;;;;;;;12.75;6.68;;;;;;;16.10;56.38;100218.47;4982632;28;20016;-41
2023/05/04 10:01:05;;;;;;;15.40;6.40;;;;;;;16.19;55.94;100215.63;4987879;28;20095;-48
2023/05/04 10:03:32;;;;;;;12.63;5.78;;;;;;;16.21;56.21;100215.59;4987211;28;20042;-48
2023/05/04 10:06:03;;;;;;;19.55;4.90;;;;;;;16.24;55.68;100222.53;4990369;28;20046;-46
2023/05/04 10:08:30;;;;;;;14.32;5.32;;;;;;;16.23;56.36;100223.41;4987046;28;20054;-42
2023/05/04 10:10:57;;;;;;;16.77;5.80;;;;;;;16.28;56.40;100213.72;4972589;28;20047;-43
2023/05/04 10:13:24;;;;;;;14.27;6.07;;;;;;;16.34;56.28;100202.28;4976596;28;20070;-49
2023/05/04 10:21:31;;;;;;;15.18;7.15;;;;;;;16.72;56.75;100170.81;5050424;27;23400;-42
2023/05/04 10:31:48;;;;;;;18.60;5.68;;;;;;;16.96;55.21;100159.66;5033093;28;20900;-46
2023/05/04 10:34:28;;;;;;;12.32;3.85;;;;;;;16.98;54.67;100156.19;4996520;28;20105;-48
2023/05/04 10:36:56;;;;;;;15.77;6.40;;;;;;;16.93;54.59;100125.75;4993262;28;20073;-45
2023/05/04 10:39:25;;;;;;;16.67;6.22;;;;;;;16.90;54.02;100130.22;4996055;28;20096;-47
2023/05/04 10:42:07;;;;;;;15.00;5.90;;;;;;;16.98;53.69;100119.56;4998070;28;20042;-46
2023/05/04 10:44:47;;;;;;;14.38;5.80;;;;;;;17.06;54.13;100112.38;4993134;28;20054;-42
2023/05/04 10:47:14;;;;;;;11.85;5.45;;;;;;;17.05;53.92;100110.59;4996895;28;20053;-43
2023/05/04 10:49:41;;;;;;;14.93;5.68;;;;;;;17.30;54.01;100102.06;4997901;28;20077;-43
2023/05/04 10:52:15;;;;;;;13.60;4.50;;;;;;;17.55;54.63;100104.81;4990626;28;20084;-47
2023/05/04 10:54:43;;;;;;;13.73;6.00;;;;;;;17.69;54.41;100093.88;4997396;28;20046;-46
2023/05/04 10:57:12;;;;;;;13.70;5.75;;;;;;;17.80;54.12;100092.69;4992522;28;20574;-43
2023/05/04 10:59:40;;;;;;;;;;;;;;;17.86;53.63;100084.63;4994736;28;20050;-42
2023/05/04 11:02:07;;;;;;;13.27;5.90;;;;;;;18.04;53.18;100101.50;4992753;28;20001;-46
2023/05/04 11:04:35;;;;;;;13.40;5.38;;;;;;;18.14;53.28;100096.88;4996214;28;20487;-46
2023/05/04 11:07:05;;;;;;;12.63;5.13;;;;;;;18.29;52.80;100111.22;4990381;28;20511;-48
2023/05/04 11:09:37;;;;;;;11.48;5.03;;;;;;;18.32;52.40;100099.75;4993721;28;20051;-42
2023/05/04 11:12:05;;;;;;;12.73;5.55;;;;;;;18.43;52.54;100087.13;4991108;28;20866;-48
2023/05/04 11:14:36;;;;;;;10.73;4.15;;;;;;;18.45;51.69;100098.44;4987210;28;20097;-47
2023/05/04 11:17:06;;;;;;;11.55;6.20;;;;;;;18.44;51.45;100101.94;4998930;28;20702;-40
2023/05/04 11:19:51;;;;;;;13.13;5.50;;;;;;;18.49;52.42;100089.56;4996504;28;20141;-44
2023/05/04 11:22:18;;;;;;;9.30;4.72;;;;;;;18.58;51.65;100098.00;4994872;28;20145;-46
2023/05/04 11:24:47;;;;;;;11.70;3.55;;;;;;;18.28;52.04;100095.53;4992440;28;20128;-43
2023/05/04 11:27:27;;;;;;;12.88;6.15;;;;;;;18.16;52.99;100088.94;4991777;28;20050;-44
2023/05/04 11:32:41;;;;;;;16.48;4.65;;;;;;;18.15;52.36;100087.22;5072935;27;20391;-41
2023/05/04 11:35:15;;;;;;;12.43;5.07;;;;;;;18.31;53.13;100063.97;5032515;28;20559;-46
2023/05/04 11:37:43;;;;;;;12.20;4.43;;;;;;;18.39;53.09;100059.31;5024167;28;20059;-42
2023/05/04 11:40:16;;;;;;;11.27;5.35;;;;;;;18.57;52.91;100047.31;5039633;28;20081;-44
2023/05/04 11:42:43;;;;;;;19.10;5.55;;;;;;;18.69;52.85;100051.25;5018182;28;20056;-47
2023/05/04 11:45:17;;;;;;;11.43;4.78;;;;;;;18.63;51.87;100044.47;5036289;28;20430;-46
2023/05/04 11:47:45;;;;;;;15.98;6.10;;;;;;;18.70;52.43;100058.22;5044984;28;20471;-50
2023/05/04 11:50:14;;;;;;;17.45;6.53;;;;;;;18.84;52.04;100048.97;5021211;28;20180;-47